sensor_id;sensor_type;location;lat;lon;timestamp;temperature;humidity
38183;DHT22;23991;52.430;10.586;2023-05-16T00:01:33;13.80;62.00
38183;DHT22;23991;52.430;10.586;2023-05-16T00:04:00;13.80;62.00
38183;DHT22;23991;52.430;10.586;2023-05-16T00:06:25;13.80;62.40
38183;DHT22;23991;52.430;10.586;2023-05-16T00:08:51;13.80;62.50
38183;DHT22;23991;52.430;10.586;2023-05-16T00:11:16;13.70;62.70
38183;DHT22;23991;52.430;10.586;2023-05-16T00:13:42;13.50;62.90
38183;DHT22;23991;52.430;10.586;2023-05-16T00:16:09;13.50;63.40
38183;DHT22;23991;52.430;10.586;2023-05-16T00:18:35;13.50;63.40
38183;DHT22;23991;52.430;10.586;2023-05-16T00:21:02;13.50;63.60
38183;DHT22;23991;52.430;10.586;2023-05-16T00:23:29;13.50;63.50
38183;DHT22;23991;52.430;10.586;2023-05-16T00:25:54;13.40;63.60
38183;DHT22;23991;52.430;10.586;2023-05-16T00:28:20;13.40;64.00
38183;DHT22;23991;52.430;10.586;2023-05-16T00:30:45;13.40;63.90
38183;DHT22;23991;52.430;10.586;2023-05-16T00:33:11;13.40;63.90
38183;DHT22;23991;52.430;10.586;2023-05-16T00:35:37;13.40;63.80
38183;DHT22;23991;52.430;10.586;2023-05-16T00:38:02;13.30;63.70
38183;DHT22;23991;52.430;10.586;2023-05-16T00:40:28;13.30;63.70
38183;DHT22;23991;52.430;10.586;2023-05-16T00:42:53;13.30;63.90
38183;DHT22;23991;52.430;10.586;2023-05-16T00:45:19;13.30;64.00
38183;DHT22;23991;52.430;10.586;2023-05-16T00:47:45;13.20;63.90
38183;DHT22;23991;52.430;10.586;2023-05-16T00:50:10;13.20;63.90
38183;DHT22;23991;52.430;10.586;2023-05-16T00:52:36;13.20;64.20
38183;DHT22;23991;52.430;10.586;2023-05-16T00:55:02;13.20;64.30
38183;DHT22;23991;52.430;10.586;2023-05-16T00:57:29;13.20;64.30
38183;DHT22;23991;52.430;10.586;2023-05-16T00:59:54;13.20;64.20
38183;DHT22;23991;52.430;10.586;2023-05-16T01:02:20;13.30;64.30
38183;DHT22;23991;52.430;10.586;2023-05-16T01:04:46;13.20;64.00
38183;DHT22;23991;52.430;10.586;2023-05-16T01:07:13;13.20;64.30
38183;DHT22;23991;52.430;10.586;2023-05-16T01:09:39;13.10;64.50
38183;DHT22;23991;52.430;10.586;2023-05-16T01:12:08;13.20;64.40
38183;DHT22;23991;52.430;10.586;2023-05-16T01:17:28;13.10;64.80
38183;DHT22;23991;52.430;10.586;2023-05-16T01:28:12;13.20;64.90
38183;DHT22;23991;52.430;10.586;2023-05-16T01:30:40;13.20;65.00
38183;DHT22;23991;52.430;10.586;2023-05-16T01:33:06;13.10;65.00
38183;DHT22;23991;52.430;10.586;2023-05-16T01:35:32;13.20;65.20
38183;DHT22;23991;52.430;10.586;2023-05-16T01:38:10;13.10;65.40
38183;DHT22;23991;52.430;10.586;2023-05-16T01:41:07;13.10;65.60
38183;DHT22;23991;52.430;10.586;2023-05-16T01:43:38;13.10;65.50
38183;DHT22;23991;52.430;10.586;2023-05-16T01:46:13;13.10;65.40
38183;DHT22;23991;52.430;10.586;2023-05-16T01:49:15;13.10;65.50
38183;DHT22;23991;52.430;10.586;2023-05-16T01:51:44;13.10;65.70
38183;DHT22;23991;52.430;10.586;2023-05-16T01:54:11;13.10;65.60
38183;DHT22;23991;52.430;10.586;2023-05-16T01:56:38;13.00;65.80
38183;DHT22;23991;52.430;10.586;2023-05-16T01:59:05;13.00;66.20
38183;DHT22;23991;52.430;10.586;2023-05-16T02:01:32;12.90;66.50
38183;DHT22;23991;52.430;10.586;2023-05-16T02:03:58;12.90;66.70
38183;DHT22;23991;52.430;10.586;2023-05-16T02:06:23;12.90;67.00
38183;DHT22;23991;52.430;10.586;2023-05-16T02:08:50;12.80;67.00
38183;DHT22;23991;52.430;10.586;2023-05-16T02:11:16;12.80;67.30
38183;DHT22;23991;52.430;10.586;2023-05-16T02:13:41;12.80;67.40
38183;DHT22;23991;52.430;10.586;2023-05-16T02:16:09;12.80;68.00
38183;DHT22;23991;52.430;10.586;2023-05-16T02:18:35;12.80;67.90
38183;DHT22;23991;52.430;10.586;2023-05-16T02:21:01;12.90;67.90
38183;DHT22;23991;52.430;10.586;2023-05-16T02:23:26;12.90;67.90
38183;DHT22;23991;52.430;10.586;2023-05-16T02:25:52;12.90;68.00
38183;DHT22;23991;52.430;10.586;2023-05-16T02:28:17;12.80;68.30
38183;DHT22;23991;52.430;10.586;2023-05-16T02:30:43;12.90;68.20
38183;DHT22;23991;52.430;10.586;2023-05-16T02:33:09;12.90;68.40
38183;DHT22;23991;52.430;10.586;2023-05-16T02:35:35;12.90;68.40
38183;DHT22;23991;52.430;10.586;2023-05-16T02:38:00;12.90;68.20
38183;DHT22;23991;52.430;10.586;2023-05-16T02:40:26;12.90;68.10
38183;DHT22;23991;52.430;10.586;2023-05-16T02:42:51;12.90;67.90
38183;DHT22;23991;52.430;10.586;2023-05-16T02:45:17;12.90;68.10
38183;DHT22;23991;52.430;10.586;2023-05-16T02:47:42;12.90;68.10
38183;DHT22;23991;52.430;10.586;2023-05-16T02:50:08;12.80;68.00
38183;DHT22;23991;52.430;10.586;2023-05-16T02:52:34;12.90;68.10
38183;DHT22;23991;52.430;10.586;2023-05-16T02:54:59;12.90;68.00
38183;DHT22;23991;52.430;10.586;2023-05-16T02:57:25;12.80;68.10
38183;DHT22;23991;52.430;10.586;2023-05-16T02:59:50;12.80;68.00
38183;DHT22;23991;52.430;10.586;2023-05-16T03:02:16;12.80;68.00
38183;DHT22;23991;52.430;10.586;2023-05-16T03:04:42;12.90;67.60
38183;DHT22;23991;52.430;10.586;2023-05-16T03:07:07;12.80;67.90
38183;DHT22;23991;52.430;10.586;2023-05-16T03:09:33;12.90;67.90
38183;DHT22;23991;52.430;10.586;2023-05-16T03:11:58;12.80;67.90
38183;DHT22;23991;52.430;10.586;2023-05-16T03:14:24;12.80;68.10
38183;DHT22;23991;52.430;10.586;2023-05-16T03:16:49;12.80;68.20
38183;DHT22;23991;52.430;10.586;2023-05-16T03:19:16;12.80;68.30
38183;DHT22;23991;52.430;10.586;2023-05-16T03:21:41;12.80;68.40
38183;DHT22;23991;52.430;10.586;2023-05-16T03:24:07;12.80;68.60
38183;DHT22;23991;52.430;10.586;2023-05-16T03:26:33;12.80;68.70
38183;DHT22;23991;52.430;10.586;2023-05-16T03:28:58;12.80;69.00
38183;DHT22;23991;52.430;10.586;2023-05-16T03:31:24;12.80;68.90
38183;DHT22;23991;52.430;10.586;2023-05-16T03:33:49;12.80;68.90
38183;DHT22;23991;52.430;10.586;2023-05-16T03:36:15;12.80;68.70
38183;DHT22;23991;52.430;10.586;2023-05-16T03:38:41;12.80;69.10
38183;DHT22;23991;52.430;10.586;2023-05-16T03:41:07;12.80;69.20
38183;DHT22;23991;52.430;10.586;2023-05-16T03:43:32;12.70;69.40
38183;DHT22;23991;52.430;10.586;2023-05-16T03:46:00;12.70;69.60
38183;DHT22;23991;52.430;10.586;2023-05-16T03:48:26;12.70;69.60
38183;DHT22;23991;52.430;10.586;2023-05-16T03:50:51;12.70;69.70
38183;DHT22;23991;52.430;10.586;2023-05-16T03:53:17;12.80;69.70
38183;DHT22;23991;52.430;10.586;2023-05-16T03:55:42;12.80;69.70
38183;DHT22;23991;52.430;10.586;2023-05-16T03:58:08;12.70;69.90
38183;DHT22;23991;52.430;10.586;2023-05-16T04:00:33;12.80;70.20
38183;DHT22;23991;52.430;10.586;2023-05-16T04:03:01;12.80;69.90
38183;DHT22;23991;52.430;10.586;2023-05-16T04:05:26;12.80;69.90
38183;DHT22;23991;52.430;10.586;2023-05-16T04:07:52;12.80;70.00
38183;DHT22;23991;52.430;10.586;2023-05-16T04:10:18;12.80;70.10
38183;DHT22;23991;52.430;10.586;2023-05-16T04:12:43;12.80;70.60
38183;DHT22;23991;52.430;10.586;2023-05-16T04:15:09;12.80;71.00
38183;DHT22;23991;52.430;10.586;2023-05-16T04:17:34;12.80;71.10
38183;DHT22;23991;52.430;10.586;2023-05-16T04:20:00;12.80;71.10
38183;DHT22;23991;52.430;10.586;2023-05-16T04:22:26;12.90;71.70
38183;DHT22;23991;52.430;10.586;2023-05-16T04:24:51;12.90;72.10
38183;DHT22;23991;52.430;10.586;2023-05-16T04:27:17;12.90;72.70
38183;DHT22;23991;52.430;10.586;2023-05-16T04:29:44;12.90;73.20
38183;DHT22;23991;52.430;10.586;2023-05-16T04:32:09;13.00;73.20
38183;DHT22;23991;52.430;10.586;2023-05-16T04:34:35;13.00;73.30
38183;DHT22;23991;52.430;10.586;2023-05-16T04:37:05;13.00;73.20
38183;DHT22;23991;52.430;10.586;2023-05-16T04:39:32;13.10;73.30
38183;DHT22;23991;52.430;10.586;2023-05-16T04:41:58;13.10;73.20
38183;DHT22;23991;52.430;10.586;2023-05-16T04:44:27;13.10;72.60
38183;DHT22;23991;52.430;10.586;2023-05-16T04:46:52;13.10;71.90
38183;DHT22;23991;52.430;10.586;2023-05-16T04:49:21;13.20;71.90
38183;DHT22;23991;52.430;10.586;2023-05-16T04:51:47;13.30;71.00
38183;DHT22;23991;52.430;10.586;2023-05-16T04:54:13;13.30;71.10
38183;DHT22;23991;52.430;10.586;2023-05-16T04:56:38;13.30;70.30
38183;DHT22;23991;52.430;10.586;2023-05-16T04:59:04;13.40;69.80
38183;DHT22;23991;52.430;10.586;2023-05-16T05:01:29;13.50;69.80
38183;DHT22;23991;52.430;10.586;2023-05-16T05:03:55;13.50;69.70
38183;DHT22;23991;52.430;10.586;2023-05-16T05:06:21;13.60;69.00
38183;DHT22;23991;52.430;10.586;2023-05-16T05:08:47;13.70;68.50
38183;DHT22;23991;52.430;10.586;2023-05-16T05:11:13;13.80;68.40
38183;DHT22;23991;52.430;10.586;2023-05-16T05:13:38;13.80;67.90
38183;DHT22;23991;52.430;10.586;2023-05-16T05:16:04;14.00;67.50
38183;DHT22;23991;52.430;10.586;2023-05-16T05:18:30;14.20;66.80
38183;DHT22;23991;52.430;10.586;2023-05-16T05:20:55;14.30;66.10
38183;DHT22;23991;52.430;10.586;2023-05-16T05:23:22;14.40;64.30
38183;DHT22;23991;52.430;10.586;2023-05-16T05:25:48;14.40;64.40
38183;DHT22;23991;52.430;10.586;2023-05-16T05:28:13;14.50;63.80
38183;DHT22;23991;52.430;10.586;2023-05-16T05:30:39;14.70;62.00
38183;DHT22;23991;52.430;10.586;2023-05-16T05:33:04;14.80;61.70
38183;DHT22;23991;52.430;10.586;2023-05-16T05:35:30;14.80;61.30
38183;DHT22;23991;52.430;10.586;2023-05-16T05:37:56;14.90;60.30
38183;DHT22;23991;52.430;10.586;2023-05-16T05:40:21;14.90;60.50
38183;DHT22;23991;52.430;10.586;2023-05-16T05:42:47;15.20;60.00
38183;DHT22;23991;52.430;10.586;2023-05-16T05:45:13;15.30;59.00
38183;DHT22;23991;52.430;10.586;2023-05-16T05:47:38;15.40;57.50
38183;DHT22;23991;52.430;10.586;2023-05-16T05:50:05;15.50;57.00
38183;DHT22;23991;52.430;10.586;2023-05-16T05:52:31;15.60;56.70
38183;DHT22;23991;52.430;10.586;2023-05-16T05:54:56;15.60;55.70
38183;DHT22;23991;52.430;10.586;2023-05-16T05:57:23;15.60;55.90
38183;DHT22;23991;52.430;10.586;2023-05-16T05:59:49;15.60;55.50
38183;DHT22;23991;52.430;10.586;2023-05-16T06:02:14;15.60;55.80
38183;DHT22;23991;52.430;10.586;2023-05-16T06:04:40;15.70;54.70
38183;DHT22;23991;52.430;10.586;2023-05-16T06:07:07;15.70;53.30
38183;DHT22;23991;52.430;10.586;2023-05-16T06:09:32;15.60;53.40
38183;DHT22;23991;52.430;10.586;2023-05-16T06:11:58;15.70;53.40
38183;DHT22;23991;52.430;10.586;2023-05-16T06:14:24;15.60;54.10
38183;DHT22;23991;52.430;10.586;2023-05-16T06:16:50;15.70;54.40
38183;DHT22;23991;52.430;10.586;2023-05-16T06:19:15;15.70;55.40
38183;DHT22;23991;52.430;10.586;2023-05-16T06:21:41;15.80;55.60
38183;DHT22;23991;52.430;10.586;2023-05-16T06:24:08;15.80;55.50
38183;DHT22;23991;52.430;10.586;2023-05-16T06:26:35;15.70;55.50
38183;DHT22;23991;52.430;10.586;2023-05-16T06:29:00;15.60;55.30
38183;DHT22;23991;52.430;10.586;2023-05-16T06:31:26;15.70;55.70
38183;DHT22;23991;52.430;10.586;2023-05-16T06:33:51;15.70;54.90
38183;DHT22;23991;52.430;10.586;2023-05-16T06:36:17;15.80;54.80
38183;DHT22;23991;52.430;10.586;2023-05-16T06:38:42;15.90;54.60
38183;DHT22;23991;52.430;10.586;2023-05-16T06:41:08;16.00;54.70
38183;DHT22;23991;52.430;10.586;2023-05-16T06:43:33;16.00;55.60
38183;DHT22;23991;52.430;10.586;2023-05-16T06:45:59;15.80;56.50
38183;DHT22;23991;52.430;10.586;2023-05-16T06:48:24;15.80;57.20
38183;DHT22;23991;52.430;10.586;2023-05-16T06:50:50;15.70;56.90
38183;DHT22;23991;52.430;10.586;2023-05-16T06:53:16;15.70;56.90
38183;DHT22;23991;52.430;10.586;2023-05-16T06:55:42;15.70;56.40
38183;DHT22;23991;52.430;10.586;2023-05-16T06:58:07;15.80;56.50
38183;DHT22;23991;52.430;10.586;2023-05-16T07:00:33;15.70;56.30
38183;DHT22;23991;52.430;10.586;2023-05-16T07:02:58;15.80;56.00
38183;DHT22;23991;52.430;10.586;2023-05-16T07:05:24;15.80;55.50
38183;DHT22;23991;52.430;10.586;2023-05-16T07:07:49;15.80;54.60
38183;DHT22;23991;52.430;10.586;2023-05-16T07:10:15;15.90;54.20
38183;DHT22;23991;52.430;10.586;2023-05-16T07:12:41;15.80;53.20
38183;DHT22;23991;52.430;10.586;2023-05-16T07:15:07;16.00;53.10
38183;DHT22;23991;52.430;10.586;2023-05-16T07:17:33;16.30;52.30
38183;DHT22;23991;52.430;10.586;2023-05-16T07:19:59;16.50;50.50
38183;DHT22;23991;52.430;10.586;2023-05-16T07:22:24;16.60;50.30
38183;DHT22;23991;52.430;10.586;2023-05-16T07:24:50;16.70;50.20
38183;DHT22;23991;52.430;10.586;2023-05-16T07:27:18;16.80;49.80
38183;DHT22;23991;52.430;10.586;2023-05-16T07:29:44;17.00;49.30
38183;DHT22;23991;52.430;10.586;2023-05-16T07:32:09;17.10;48.60
38183;DHT22;23991;52.430;10.586;2023-05-16T07:34:35;17.20;48.40
38183;DHT22;23991;52.430;10.586;2023-05-16T07:37:01;17.30;47.80
38183;DHT22;23991;52.430;10.586;2023-05-16T07:39:26;17.20;47.10
38183;DHT22;23991;52.430;10.586;2023-05-16T07:41:52;17.20;46.80
38183;DHT22;23991;52.430;10.586;2023-05-16T07:44:17;17.20;46.00
38183;DHT22;23991;52.430;10.586;2023-05-16T07:46:43;17.40;45.90
38183;DHT22;23991;52.430;10.586;2023-05-16T07:49:09;17.50;45.70
38183;DHT22;23991;52.430;10.586;2023-05-16T07:51:35;17.70;45.20
38183;DHT22;23991;52.430;10.586;2023-05-16T07:54:01;18.00;44.90
38183;DHT22;23991;52.430;10.586;2023-05-16T07:56:26;18.10;43.50
38183;DHT22;23991;52.430;10.586;2023-05-16T07:58:52;18.20;42.90
38183;DHT22;23991;52.430;10.586;2023-05-16T08:01:18;18.40;41.80
38183;DHT22;23991;52.430;10.586;2023-05-16T08:03:43;18.50;40.50
38183;DHT22;23991;52.430;10.586;2023-05-16T08:06:09;18.50;41.10
38183;DHT22;23991;52.430;10.586;2023-05-16T08:08:34;18.50;40.60
38183;DHT22;23991;52.430;10.586;2023-05-16T08:11:00;18.70;40.20
38183;DHT22;23991;52.430;10.586;2023-05-16T08:13:25;18.70;40.90
38183;DHT22;23991;52.430;10.586;2023-05-16T08:15:51;18.60;39.90
38183;DHT22;23991;52.430;10.586;2023-05-16T08:18:16;18.80;39.60
38183;DHT22;23991;52.430;10.586;2023-05-16T08:20:42;19.10;39.00
38183;DHT22;23991;52.430;10.586;2023-05-16T08:23:08;19.30;39.00
38183;DHT22;23991;52.430;10.586;2023-05-16T08:25:34;19.30;38.30
38183;DHT22;23991;52.430;10.586;2023-05-16T08:28:00;19.70;37.90
38183;DHT22;23991;52.430;10.586;2023-05-16T08:30:26;20.20;37.30
38183;DHT22;23991;52.430;10.586;2023-05-16T08:32:52;20.60;37.00
38183;DHT22;23991;52.430;10.586;2023-05-16T08:35:18;20.80;36.80
38183;DHT22;23991;52.430;10.586;2023-05-16T08:37:43;20.90;36.70
38183;DHT22;23991;52.430;10.586;2023-05-16T08:40:09;21.00;35.90
38183;DHT22;23991;52.430;10.586;2023-05-16T08:42:36;21.00;35.90
38183;DHT22;23991;52.430;10.586;2023-05-16T08:45:02;21.00;34.60
38183;DHT22;23991;52.430;10.586;2023-05-16T08:47:30;21.20;34.50
38183;DHT22;23991;52.430;10.586;2023-05-16T08:49:57;21.50;33.90
38183;DHT22;23991;52.430;10.586;2023-05-16T08:52:26;21.70;33.50
38183;DHT22;23991;52.430;10.586;2023-05-16T08:54:57;21.80;33.30
38183;DHT22;23991;52.430;10.586;2023-05-16T08:57:25;22.00;32.90
38183;DHT22;23991;52.430;10.586;2023-05-16T08:59:51;22.00;32.40
38183;DHT22;23991;52.430;10.586;2023-05-16T09:02:20;22.20;32.00
38183;DHT22;23991;52.430;10.586;2023-05-16T09:04:47;22.40;31.80
38183;DHT22;23991;52.430;10.586;2023-05-16T09:07:13;22.40;30.80
38183;DHT22;23991;52.430;10.586;2023-05-16T09:09:39;22.50;31.00
38183;DHT22;23991;52.430;10.586;2023-05-16T09:12:05;22.50;30.20
38183;DHT22;23991;52.430;10.586;2023-05-16T09:14:30;22.30;29.60
38183;DHT22;23991;52.430;10.586;2023-05-16T09:17:04;22.80;29.60
38183;DHT22;23991;52.430;10.586;2023-05-16T09:19:40;23.30;29.80
38183;DHT22;23991;52.430;10.586;2023-05-16T09:22:09;23.80;28.50
38183;DHT22;23991;52.430;10.586;2023-05-16T09:24:39;24.40;28.50
38183;DHT22;23991;52.430;10.586;2023-05-16T09:27:12;24.80;26.40
38183;DHT22;23991;52.430;10.586;2023-05-16T09:29:42;23.80;26.50
38183;DHT22;23991;52.430;10.586;2023-05-16T09:32:09;24.20;27.30
38183;DHT22;23991;52.430;10.586;2023-05-16T09:34:44;24.40;27.90
38183;DHT22;23991;52.430;10.586;2023-05-16T09:37:11;24.60;27.70
38183;DHT22;23991;52.430;10.586;2023-05-16T09:39:39;24.70;27.50
38183;DHT22;23991;52.430;10.586;2023-05-16T09:42:10;25.20;26.80
38183;DHT22;23991;52.430;10.586;2023-05-16T09:44:36;25.50;25.60
38183;DHT22;23991;52.430;10.586;2023-05-16T09:47:02;25.70;25.90
38183;DHT22;23991;52.430;10.586;2023-05-16T09:49:27;26.20;25.90
38183;DHT22;23991;52.430;10.586;2023-05-16T09:51:54;26.20;25.90
38183;DHT22;23991;52.430;10.586;2023-05-16T09:54:30;25.70;25.50
38183;DHT22;23991;52.430;10.586;2023-05-16T09:56:57;25.80;25.10
38183;DHT22;23991;52.430;10.586;2023-05-16T09:59:22;25.30;25.20
38183;DHT22;23991;52.430;10.586;2023-05-16T10:01:48;25.50;24.60
38183;DHT22;23991;52.430;10.586;2023-05-16T10:04:15;25.80;25.00
38183;DHT22;23991;52.430;10.586;2023-05-16T10:06:41;26.50;24.60
38183;DHT22;23991;52.430;10.586;2023-05-16T10:09:10;26.70;24.70
38183;DHT22;23991;52.430;10.586;2023-05-16T10:11:40;26.50;24.70
38183;DHT22;23991;52.430;10.586;2023-05-16T10:14:08;26.00;24.20
38183;DHT22;23991;52.430;10.586;2023-05-16T10:16:34;25.30;24.50
38183;DHT22;23991;52.430;10.586;2023-05-16T10:19:02;25.70;24.60
38183;DHT22;23991;52.430;10.586;2023-05-16T10:21:28;26.30;23.60
38183;DHT22;23991;52.430;10.586;2023-05-16T10:23:56;26.60;22.40
38183;DHT22;23991;52.430;10.586;2023-05-16T10:26:23;26.30;22.60
38183;DHT22;23991;52.430;10.586;2023-05-16T10:28:49;26.70;22.60
38183;DHT22;23991;52.430;10.586;2023-05-16T10:31:15;26.40;23.60
38183;DHT22;23991;52.430;10.586;2023-05-16T10:33:41;26.80;23.10
38183;DHT22;23991;52.430;10.586;2023-05-16T10:36:11;27.30;23.20
38183;DHT22;23991;52.430;10.586;2023-05-16T10:38:37;27.80;22.50
38183;DHT22;23991;52.430;10.586;2023-05-16T10:41:04;27.30;22.10
38183;DHT22;23991;52.430;10.586;2023-05-16T10:43:30;28.00;22.10
38183;DHT22;23991;52.430;10.586;2023-05-16T10:46:07;27.70;21.60
38183;DHT22;23991;52.430;10.586;2023-05-16T10:48:39;28.40;21.70
38183;DHT22;23991;52.430;10.586;2023-05-16T10:51:31;28.90;21.20
38183;DHT22;23991;52.430;10.586;2023-05-16T10:53:51;29.50;20.20
38183;DHT22;23991;52.430;10.586;2023-05-16T10:56:22;29.80;20.00
38183;DHT22;23991;52.430;10.586;2023-05-16T10:58:48;29.50;19.70
38183;DHT22;23991;52.430;10.586;2023-05-16T11:01:22;29.20;20.00
38183;DHT22;23991;52.430;10.586;2023-05-16T11:06:24;28.90;21.50
38183;DHT22;23991;52.430;10.586;2023-05-16T11:12:01;29.00;21.30
38183;DHT22;23991;52.430;10.586;2023-05-16T11:19:50;29.20;20.90
38183;DHT22;23991;52.430;10.586;2023-05-16T11:27:28;28.70;20.60
38183;DHT22;23991;52.430;10.586;2023-05-16T11:29:58;28.30;20.50
38183;DHT22;23991;52.430;10.586;2023-05-16T11:32:25;28.30;21.20
38183;DHT22;23991;52.430;10.586;2023-05-16T11:34:51;28.50;21.80
38183;DHT22;23991;52.430;10.586;2023-05-16T11:37:18;28.10;22.90
38183;DHT22;23991;52.430;10.586;2023-05-16T11:39:44;28.10;22.80
38183;DHT22;23991;52.430;10.586;2023-05-16T11:42:10;27.90;23.20
38183;DHT22;23991;52.430;10.586;2023-05-16T11:44:38;28.00;23.00
38183;DHT22;23991;52.430;10.586;2023-05-16T11:47:04;28.20;22.70
38183;DHT22;23991;52.430;10.586;2023-05-16T11:49:30;28.50;22.10
38183;DHT22;23991;52.430;10.586;2023-05-16T11:51:56;29.40;21.20
38183;DHT22;23991;52.430;10.586;2023-05-16T11:54:22;29.30;20.80
38183;DHT22;23991;52.430;10.586;2023-05-16T11:56:49;29.40;20.50
38183;DHT22;23991;52.430;10.586;2023-05-16T11:59:16;28.90;21.30
38183;DHT22;23991;52.430;10.586;2023-05-16T12:01:42;28.30;21.40
38183;DHT22;23991;52.430;10.586;2023-05-16T12:04:12;27.90;21.90
38183;DHT22;23991;52.430;10.586;2023-05-16T12:06:38;27.70;22.10
38183;DHT22;23991;52.430;10.586;2023-05-16T12:09:05;27.30;21.70
38183;DHT22;23991;52.430;10.586;2023-05-16T12:11:43;27.70;22.00
38183;DHT22;23991;52.430;10.586;2023-05-16T12:14:11;27.70;21.60
38183;DHT22;23991;52.430;10.586;2023-05-16T12:16:41;27.90;21.20
38183;DHT22;23991;52.430;10.586;2023-05-16T12:19:08;27.80;21.60
38183;DHT22;23991;52.430;10.586;2023-05-16T12:21:34;26.80;22.40
38183;DHT22;23991;52.430;10.586;2023-05-16T12:24:01;27.50;22.70
38183;DHT22;23991;52.430;10.586;2023-05-16T12:26:31;28.30;22.70
38183;DHT22;23991;52.430;10.586;2023-05-16T12:29:01;29.00;22.30
38183;DHT22;23991;52.430;10.586;2023-05-16T12:31:34;29.30;21.40
38183;DHT22;23991;52.430;10.586;2023-05-16T12:34:00;29.10;21.50
38183;DHT22;23991;52.430;10.586;2023-05-16T12:36:31;28.80;21.30
38183;DHT22;23991;52.430;10.586;2023-05-16T12:39:00;28.60;21.40
38183;DHT22;23991;52.430;10.586;2023-05-16T12:41:26;28.90;21.30
38183;DHT22;23991;52.430;10.586;2023-05-16T12:44:11;29.40;21.00
38183;DHT22;23991;52.430;10.586;2023-05-16T12:46:46;29.70;19.70
38183;DHT22;23991;52.430;10.586;2023-05-16T12:49:12;30.20;19.20
38183;DHT22;23991;52.430;10.586;2023-05-16T12:51:38;29.90;18.60
38183;DHT22;23991;52.430;10.586;2023-05-16T12:54:11;30.40;18.30
38183;DHT22;23991;52.430;10.586;2023-05-16T12:56:38;30.60;17.90
38183;DHT22;23991;52.430;10.586;2023-05-16T12:59:03;31.10;17.70
38183;DHT22;23991;52.430;10.586;2023-05-16T13:01:29;31.50;18.40
38183;DHT22;23991;52.430;10.586;2023-05-16T13:03:54;31.80;17.10
38183;DHT22;23991;52.430;10.586;2023-05-16T13:06:20;31.30;17.60
38183;DHT22;23991;52.430;10.586;2023-05-16T13:08:45;30.70;18.00
38183;DHT22;23991;52.430;10.586;2023-05-16T13:11:11;29.90;18.60
38183;DHT22;23991;52.430;10.586;2023-05-16T13:13:37;29.60;18.80
38183;DHT22;23991;52.430;10.586;2023-05-16T13:16:02;30.00;19.00
38183;DHT22;23991;52.430;10.586;2023-05-16T13:18:28;30.00;18.90
38183;DHT22;23991;52.430;10.586;2023-05-16T13:20:54;29.90;18.50
38183;DHT22;23991;52.430;10.586;2023-05-16T13:23:19;30.30;19.00
38183;DHT22;23991;52.430;10.586;2023-05-16T13:25:45;31.10;18.60
38183;DHT22;23991;52.430;10.586;2023-05-16T13:28:11;30.40;19.70
38183;DHT22;23991;52.430;10.586;2023-05-16T13:30:36;30.40;20.60
38183;DHT22;23991;52.430;10.586;2023-05-16T13:33:02;29.90;20.70
38183;DHT22;23991;52.430;10.586;2023-05-16T13:35:28;30.70;20.20
38183;DHT22;23991;52.430;10.586;2023-05-16T13:37:54;30.40;20.30
38183;DHT22;23991;52.430;10.586;2023-05-16T13:40:19;30.90;19.50
38183;DHT22;23991;52.430;10.586;2023-05-16T13:42:45;30.40;19.60
38183;DHT22;23991;52.430;10.586;2023-05-16T13:45:11;30.20;19.70
38183;DHT22;23991;52.430;10.586;2023-05-16T13:47:37;29.70;20.30
38183;DHT22;23991;52.430;10.586;2023-05-16T13:50:03;30.00;20.10
38183;DHT22;23991;52.430;10.586;2023-05-16T13:52:33;30.40;19.20
38183;DHT22;23991;52.430;10.586;2023-05-16T13:54:59;30.70;19.00
38183;DHT22;23991;52.430;10.586;2023-05-16T13:57:24;30.10;18.30
38183;DHT22;23991;52.430;10.586;2023-05-16T13:59:51;30.40;17.40
38183;DHT22;23991;52.430;10.586;2023-05-16T14:02:17;30.10;17.00
38183;DHT22;23991;52.430;10.586;2023-05-16T14:04:42;30.30;16.90
38183;DHT22;23991;52.430;10.586;2023-05-16T14:07:08;30.40;17.00
38183;DHT22;23991;52.430;10.586;2023-05-16T14:09:33;29.80;17.60
38183;DHT22;23991;52.430;10.586;2023-05-16T14:12:01;29.20;18.00
38183;DHT22;23991;52.430;10.586;2023-05-16T14:14:29;29.20;18.30
38183;DHT22;23991;52.430;10.586;2023-05-16T14:16:55;29.70;17.80
38183;DHT22;23991;52.430;10.586;2023-05-16T14:19:20;30.20;18.60
38183;DHT22;23991;52.430;10.586;2023-05-16T14:21:46;30.30;18.50
38183;DHT22;23991;52.430;10.586;2023-05-16T14:24:11;29.80;18.40
38183;DHT22;23991;52.430;10.586;2023-05-16T14:26:37;29.50;18.60
38183;DHT22;23991;52.430;10.586;2023-05-16T14:29:02;29.70;18.50
38183;DHT22;23991;52.430;10.586;2023-05-16T14:31:29;30.10;18.20
38183;DHT22;23991;52.430;10.586;2023-05-16T14:34:01;30.40;17.80
38183;DHT22;23991;52.430;10.586;2023-05-16T14:36:27;30.60;17.80
38183;DHT22;23991;52.430;10.586;2023-05-16T14:38:53;30.70;17.90
38183;DHT22;23991;52.430;10.586;2023-05-16T14:41:18;30.20;18.20
38183;DHT22;23991;52.430;10.586;2023-05-16T14:43:44;30.20;17.80
38183;DHT22;23991;52.430;10.586;2023-05-16T14:46:11;29.50;18.10
38183;DHT22;23991;52.430;10.586;2023-05-16T14:48:37;29.60;18.80
38183;DHT22;23991;52.430;10.586;2023-05-16T14:51:02;29.80;18.50
38183;DHT22;23991;52.430;10.586;2023-05-16T14:53:29;29.20;18.40
38183;DHT22;23991;52.430;10.586;2023-05-16T14:55:55;28.80;18.50
38183;DHT22;23991;52.430;10.586;2023-05-16T14:58:20;28.50;19.20
38183;DHT22;23991;52.430;10.586;2023-05-16T15:00:46;28.40;19.90
38183;DHT22;23991;52.430;10.586;2023-05-16T15:03:11;28.80;19.80
38183;DHT22;23991;52.430;10.586;2023-05-16T15:05:37;28.80;19.40
38183;DHT22;23991;52.430;10.586;2023-05-16T15:08:03;28.80;19.90
38183;DHT22;23991;52.430;10.586;2023-05-16T15:10:28;29.10;20.10
38183;DHT22;23991;52.430;10.586;2023-05-16T15:12:54;29.40;20.10
38183;DHT22;23991;52.430;10.586;2023-05-16T15:15:19;29.00;20.50
38183;DHT22;23991;52.430;10.586;2023-05-16T15:17:45;28.60;20.50
38183;DHT22;23991;52.430;10.586;2023-05-16T15:20:11;28.80;20.90
38183;DHT22;23991;52.430;10.586;2023-05-16T15:22:38;29.20;20.60
38183;DHT22;23991;52.430;10.586;2023-05-16T15:25:05;29.30;19.30
38183;DHT22;23991;52.430;10.586;2023-05-16T15:27:31;28.60;18.00
38183;DHT22;23991;52.430;10.586;2023-05-16T15:29:57;28.20;18.40
38183;DHT22;23991;52.430;10.586;2023-05-16T15:32:23;28.00;18.60
38183;DHT22;23991;52.430;10.586;2023-05-16T15:34:48;28.20;19.00
38183;DHT22;23991;52.430;10.586;2023-05-16T15:37:14;28.10;19.00
38183;DHT22;23991;52.430;10.586;2023-05-16T15:39:40;28.00;19.00